createdAt,value
2018-04-27T00:00:36.707Z,3.78
2018-04-27T00:01:39.763Z,4.50
2018-04-27T00:02:42.890Z,4.25
2018-04-27T00:03:45.972Z,3.97
2018-04-27T00:04:49.047Z,3.75
2018-04-27T00:05:52.183Z,3.70
2018-04-27T00:06:55.219Z,4.37
2018-04-27T00:07:58.402Z,3.67
2018-04-27T00:09:01.477Z,3.45
2018-04-27T00:10:04.763Z,4.12
2018-04-27T00:11:07.877Z,3.85
2018-04-27T00:12:11.020Z,4.30
2018-04-27T00:13:14.163Z,4.18
2018-04-27T00:14:17.523Z,4.10
2018-04-27T00:15:20.582Z,3.90
2018-04-27T00:16:23.795Z,3.50
2018-04-27T00:17:26.942Z,4.57
2018-04-27T00:18:30.222Z,3.33
2018-04-27T00:19:33.269Z,3.95
2018-04-27T00:20:36.322Z,3.25
2018-04-27T00:21:40.202Z,4.70
2018-04-27T00:22:43.347Z,6.05
2018-04-27T00:23:47.480Z,4.60
2018-04-27T00:24:50.561Z,3.20
2018-04-27T00:25:53.641Z,3.35
2018-04-27T00:26:56.818Z,4.00
2018-04-27T00:27:59.891Z,3.70
2018-04-27T00:29:02.944Z,3.22
2018-04-27T00:30:06.068Z,3.05
2018-04-27T00:31:09.115Z,5.43
2018-04-27T00:32:12.206Z,4.40
2018-04-27T00:33:15.355Z,3.50
2018-04-27T00:34:18.440Z,4.65
2018-04-27T00:35:21.444Z,3.33
2018-04-27T00:36:24.619Z,3.25
2018-04-27T00:37:27.876Z,3.83
2018-04-27T00:38:30.981Z,3.25
2018-04-27T00:39:34.029Z,3.30
2018-04-27T00:40:37.067Z,4.25
2018-04-27T00:41:40.158Z,3.40
2018-04-27T00:42:43.602Z,4.32
2018-04-27T00:43:46.951Z,3.75
2018-04-27T00:44:50.034Z,3.45
2018-04-27T00:45:53.110Z,3.50
2018-04-27T00:46:56.221Z,4.30
2018-04-27T00:47:59.293Z,3.08
2018-04-27T00:49:02.330Z,3.65
2018-04-27T00:50:05.737Z,3.28
2018-04-27T00:51:08.849Z,3.45
2018-04-27T00:52:11.942Z,3.35
2018-04-27T00:53:15.781Z,3.95
2018-04-27T00:54:18.991Z,3.22
2018-04-27T00:55:22.012Z,3.40
2018-04-27T00:56:25.093Z,3.70
2018-04-27T00:57:28.253Z,4.80
2018-04-27T00:58:31.415Z,4.05
2018-04-27T00:59:34.451Z,3.80
2018-04-27T01:00:37.615Z,3.67
2018-04-27T01:01:40.944Z,3.00
2018-04-27T01:02:44.150Z,2.60
2018-04-27T01:03:47.343Z,3.42
2018-04-27T01:04:50.515Z,3.30
2018-04-27T01:05:53.682Z,3.42
2018-04-27T01:06:56.789Z,4.07
2018-04-27T01:07:59.908Z,4.47
2018-04-27T01:09:03.082Z,3.55
2018-04-27T01:10:06.136Z,5.45
2018-04-27T01:11:09.218Z,3.20
2018-04-27T01:12:12.251Z,3.30
2018-04-27T01:13:15.290Z,3.92
2018-04-27T01:14:18.469Z,3.40
2018-04-27T01:15:21.565Z,3.28
2018-04-27T01:16:24.674Z,3.08
2018-04-27T01:17:27.765Z,3.47
2018-04-27T01:18:30.798Z,4.25
2018-04-27T01:19:34.382Z,3.80
2018-04-27T01:20:37.406Z,3.53
2018-04-27T01:21:40.593Z,3.47
2018-04-27T01:22:43.667Z,3.90
2018-04-27T01:23:46.741Z,3.25
2018-04-27T01:24:50.979Z,5.53
2018-04-27T01:25:54.038Z,4.00
2018-04-27T01:26:57.163Z,3.15
2018-04-27T01:28:00.291Z,3.58
2018-04-27T01:29:03.403Z,4.32
2018-04-27T01:30:06.519Z,3.55
2018-04-27T01:31:09.622Z,4.62
2018-04-27T01:32:12.683Z,3.50
2018-04-27T01:33:15.849Z,3.20
2018-04-27T01:34:18.920Z,4.47
2018-04-27T01:35:22.085Z,3.62
2018-04-27T01:36:25.219Z,4.03
2018-04-27T01:37:28.277Z,3.37
2018-04-27T01:38:31.491Z,3.50
2018-04-27T01:39:34.635Z,5.37
2018-04-27T01:40:37.883Z,3.30
2018-04-27T01:41:41.126Z,3.70
2018-04-27T01:42:44.319Z,4.07
2018-04-27T01:43:47.383Z,4.70
2018-04-27T01:44:50.475Z,3.70
2018-04-27T01:45:53.748Z,3.22
2018-04-27T01:46:56.866Z,3.95
2018-04-27T01:47:59.914Z,3.60
2018-04-27T01:49:02.963Z,3.60
2018-04-27T01:50:06.071Z,3.55
2018-04-27T01:51:09.456Z,3.42
2018-04-27T01:52:12.609Z,4.40
2018-04-27T01:53:15.643Z,3.50
2018-04-27T01:54:18.842Z,5.70
2018-04-27T01:55:22.037Z,3.90
2018-04-27T01:56:25.168Z,3.03
2018-04-27T01:57:28.211Z,4.25
2018-04-27T01:58:31.370Z,3.80
2018-04-27T01:59:34.428Z,5.40
2018-04-27T02:00:37.669Z,4.05
2018-04-27T02:01:40.857Z,3.80
2018-04-27T02:02:43.963Z,4.18
2018-04-27T02:03:47.061Z,4.10
2018-04-27T02:04:50.232Z,4.93
2018-04-27T02:05:53.418Z,4.75
2018-04-27T02:06:56.686Z,4.95
2018-04-27T02:08:00.065Z,4.50
2018-04-27T02:09:03.479Z,5.82
2018-04-27T02:10:06.515Z,4.45
2018-04-27T02:11:09.590Z,4.55
2018-04-27T02:12:12.695Z,4.70
2018-04-27T02:13:16.161Z,4.50
2018-04-27T02:14:19.299Z,4.25
2018-04-27T02:15:22.352Z,5.22
2018-04-27T02:16:25.638Z,5.78
2018-04-27T02:17:28.696Z,6.12
2018-04-27T02:18:31.962Z,5.55
2018-04-27T02:19:35.047Z,4.80
2018-04-27T02:20:38.129Z,4.32
2018-04-27T02:21:41.198Z,5.60
2018-04-27T02:22:44.587Z,4.43
2018-04-27T02:23:47.626Z,5.07
2018-04-27T02:24:51.019Z,4.90
2018-04-27T02:25:54.253Z,4.65
2018-04-27T02:26:57.438Z,4.80
2018-04-27T02:28:00.680Z,5.20
2018-04-27T02:29:04.045Z,4.60
2018-04-27T02:30:07.128Z,4.80
2018-04-27T02:31:10.192Z,5.07
2018-04-27T02:32:13.405Z,4.72
2018-04-27T02:33:16.658Z,5.60
2018-04-27T02:34:19.719Z,4.30
2018-04-27T02:35:22.818Z,4.45
2018-04-27T02:36:25.947Z,5.07
2018-04-27T02:37:29.343Z,5.37
2018-04-27T02:38:32.710Z,5.05
2018-04-27T02:39:35.920Z,5.62
2018-04-27T02:40:39.300Z,6.05
2018-04-27T02:41:42.622Z,4.90
2018-04-27T02:42:45.750Z,4.90
2018-04-27T02:43:48.858Z,5.70
2018-04-27T02:44:51.969Z,6.25
2018-04-27T02:45:55.252Z,4.80
2018-04-27T02:46:58.366Z,5.12
2018-04-27T02:48:01.415Z,5.35
2018-04-27T02:49:04.455Z,4.90
2018-04-27T02:50:07.581Z,4.97
2018-04-27T02:51:10.717Z,4.90
2018-04-27T02:52:13.817Z,5.12
2018-04-27T02:53:16.959Z,5.75
2018-04-27T02:54:20.329Z,5.25
2018-04-27T02:55:23.648Z,4.53
2018-04-27T02:56:26.904Z,5.20
2018-04-27T02:57:29.955Z,4.57
2018-04-27T02:58:33.505Z,5.12
2018-04-27T02:59:36.588Z,5.05
2018-04-27T03:00:39.876Z,5.03
2018-04-27T03:01:43.116Z,4.65
2018-04-27T03:02:46.257Z,5.10
2018-04-27T03:03:49.369Z,4.43
2018-04-27T03:04:52.512Z,4.50
2018-04-27T03:05:55.762Z,5.30
2018-04-27T03:06:58.845Z,4.25
2018-04-27T03:08:01.905Z,3.87
2018-04-27T03:09:05.630Z,4.45
2018-04-27T03:10:08.741Z,4.45
2018-04-27T03:11:12.743Z,4.62
2018-04-27T03:12:15.961Z,4.70
2018-04-27T03:13:19.062Z,5.55
2018-04-27T03:14:22.298Z,4.60
2018-04-27T03:15:25.435Z,4.90
2018-04-27T03:16:28.530Z,4.37
2018-04-27T03:17:31.594Z,4.30
2018-04-27T03:18:34.732Z,5.35
2018-04-27T03:19:37.833Z,3.90
2018-04-27T03:20:41.200Z,5.20
2018-04-27T03:21:44.267Z,5.03
2018-04-27T03:22:47.311Z,4.43
2018-04-27T03:23:50.772Z,4.03
2018-04-27T03:24:55.220Z,4.35
2018-04-27T03:25:58.414Z,4.82
2018-04-27T03:27:01.454Z,4.30
2018-04-27T03:28:04.552Z,4.35
2018-04-27T03:29:07.880Z,4.82
2018-04-27T03:30:11.028Z,4.37
2018-04-27T03:31:14.543Z,5.20
2018-04-27T03:32:17.619Z,4.43
2018-04-27T03:33:20.940Z,3.95
2018-04-27T03:34:24.113Z,4.53
2018-04-27T03:35:27.326Z,4.20
2018-04-27T03:36:30.489Z,4.43
2018-04-27T03:37:33.649Z,4.55
2018-04-27T03:38:36.842Z,4.20
2018-04-27T03:39:40.071Z,4.30
2018-04-27T03:40:43.128Z,4.32
2018-04-27T03:41:46.275Z,5.28
2018-04-27T03:42:49.487Z,4.40
2018-04-27T03:43:52.825Z,5.22
2018-04-27T03:44:55.923Z,4.20
2018-04-27T03:45:59.072Z,5.40
2018-04-27T03:47:02.173Z,5.50
2018-04-27T03:48:05.297Z,4.28
2018-04-27T03:49:08.346Z,4.70
2018-04-27T03:50:11.491Z,4.78
2018-04-27T03:51:14.695Z,4.60
2018-04-27T03:52:17.781Z,4.93
2018-04-27T03:53:20.908Z,6.90
2018-04-27T03:54:24.050Z,5.47
2018-04-27T03:55:27.125Z,4.43
2018-04-27T03:56:30.227Z,5.28
2018-04-27T03:57:33.355Z,4.12
2018-04-27T03:58:36.407Z,4.10
2018-04-27T03:59:51.299Z,5.12
2018-04-27T04:02:43.309Z,5.32
2018-04-27T04:03:58.184Z,5.05
2018-04-27T04:05:13.206Z,5.90
2018-04-27T04:06:16.281Z,4.95
2018-04-27T04:07:19.503Z,5.72
2018-04-27T04:08:22.946Z,4.78
2018-04-27T04:09:25.988Z,4.37
2018-04-27T04:10:29.082Z,5.53
2018-04-27T04:11:32.167Z,4.80
2018-04-27T04:12:35.289Z,5.10
2018-04-27T04:13:38.411Z,5.05
2018-04-27T04:14:41.707Z,5.12
2018-04-27T04:15:44.756Z,5.22
2018-04-27T04:16:47.892Z,5.40
2018-04-27T04:17:51.014Z,4.72
2018-04-27T04:18:54.199Z,5.32
2018-04-27T04:19:57.265Z,5.70
2018-04-27T04:21:00.316Z,5.93
2018-04-27T04:22:03.604Z,5.32
2018-04-27T04:23:06.688Z,6.18
2018-04-27T04:24:09.813Z,5.45
2018-04-27T04:25:13.943Z,5.12
2018-04-27T04:26:17.046Z,5.37
2018-04-27T04:27:20.151Z,5.93
2018-04-27T04:28:23.250Z,6.00
2018-04-27T04:29:26.312Z,5.60
2018-04-27T04:30:29.431Z,5.47
2018-04-27T04:31:32.575Z,4.93
2018-04-27T04:32:34.899Z,5.05
2018-04-27T04:33:37.794Z,4.85
2018-04-27T04:34:40.927Z,5.62
2018-04-27T04:35:44.085Z,5.37
2018-04-27T04:36:47.202Z,5.57
2018-04-27T04:37:50.282Z,5.30
2018-04-27T04:38:53.327Z,5.00
2018-04-27T04:39:56.421Z,7.37
2018-04-27T04:40:59.625Z,4.97
2018-04-27T04:42:02.725Z,5.57
2018-04-27T04:43:05.791Z,6.10
2018-04-27T04:44:08.861Z,6.03
2018-04-27T04:45:11.982Z,5.18
2018-04-27T04:46:15.037Z,5.93
2018-04-27T04:47:18.141Z,6.43
2018-04-27T04:48:21.214Z,5.55
2018-04-27T04:49:24.285Z,6.03
2018-04-27T04:50:27.496Z,6.10
2018-04-27T04:51:30.733Z,4.95
2018-04-27T04:52:33.807Z,5.53
2018-04-27T04:53:36.924Z,5.47
2018-04-27T04:54:41.524Z,5.05
2018-04-27T04:55:44.646Z,5.87
2018-04-27T04:56:48.360Z,4.72
2018-04-27T04:57:51.428Z,5.20
2018-04-27T04:58:54.530Z,5.28
2018-04-27T04:59:57.626Z,6.12
2018-04-27T05:01:00.770Z,7.07
2018-04-27T05:02:03.818Z,5.53
2018-04-27T05:03:06.875Z,5.10
2018-04-27T05:04:10.188Z,6.00
2018-04-27T05:05:13.273Z,5.70
2018-04-27T05:06:16.424Z,4.85
2018-04-27T05:07:19.774Z,6.45
2018-04-27T05:08:22.887Z,6.00
2018-04-27T05:09:25.935Z,6.00
2018-04-27T05:10:29.123Z,5.90
2018-04-27T05:11:32.225Z,5.03
2018-04-27T05:12:35.294Z,5.47
2018-04-27T05:13:38.399Z,5.45
2018-04-27T05:14:41.458Z,5.70
2018-04-27T05:15:44.646Z,5.30
2018-04-27T05:16:47.866Z,5.10
2018-04-27T05:17:50.959Z,5.20
2018-04-27T05:19:04.139Z,5.55
2018-04-27T05:20:06.704Z,5.15
2018-04-27T05:21:09.799Z,5.40
2018-04-27T05:22:13.007Z,5.47
2018-04-27T05:23:16.811Z,4.95
2018-04-27T05:24:20.055Z,4.43
2018-04-27T05:25:23.330Z,5.28
2018-04-27T05:26:26.427Z,5.40
2018-04-27T05:27:29.612Z,4.90
2018-04-27T05:28:32.670Z,5.70
2018-04-27T05:29:35.820Z,6.00
2018-04-27T05:30:38.882Z,5.20
2018-04-27T05:31:42.431Z,4.90
2018-04-27T05:32:45.715Z,5.43
2018-04-27T05:33:49.015Z,5.30
2018-04-27T05:34:52.059Z,5.90
2018-04-27T05:35:55.114Z,5.37
2018-04-27T05:36:59.119Z,6.82
2018-04-27T05:38:02.366Z,5.60
2018-04-27T05:39:05.500Z,5.40
2018-04-27T05:40:08.720Z,4.45
2018-04-27T05:41:12.970Z,4.20
2018-04-27T05:42:16.136Z,5.18
2018-04-27T05:43:20.093Z,4.75
2018-04-27T05:44:23.185Z,6.15
2018-04-27T05:45:26.313Z,4.80
2018-04-27T05:46:29.363Z,5.30
2018-04-27T05:47:32.471Z,5.57
2018-04-27T05:48:35.927Z,4.70
2018-04-27T05:49:39.037Z,4.93
2018-04-27T05:50:42.241Z,4.22
2018-04-27T05:51:45.331Z,4.55
2018-04-27T05:52:48.520Z,5.57
2018-04-27T05:53:51.960Z,4.65
2018-04-27T05:54:55.280Z,4.40
2018-04-27T05:55:59.270Z,4.57
2018-04-27T05:57:02.350Z,4.82
2018-04-27T05:58:05.508Z,4.57
2018-04-27T05:59:08.759Z,5.45
2018-04-27T06:00:11.937Z,4.12
2018-04-27T06:01:15.015Z,3.75
2018-04-27T06:02:18.173Z,5.22
2018-04-27T06:03:21.288Z,4.57
2018-04-27T06:04:24.414Z,4.90
2018-04-27T06:05:27.572Z,4.30
2018-04-27T06:06:30.674Z,4.87
2018-04-27T06:07:33.749Z,4.97
2018-04-27T06:08:36.915Z,4.43
2018-04-27T06:09:40.053Z,4.20
2018-04-27T06:10:43.298Z,4.37
2018-04-27T06:11:46.348Z,5.47
2018-04-27T06:12:49.427Z,4.70
2018-04-27T06:13:52.474Z,5.65
2018-04-27T06:14:55.562Z,4.70
2018-04-27T06:15:58.747Z,5.35
2018-04-27T06:17:01.928Z,4.50
2018-04-27T06:18:05.020Z,4.40
2018-04-27T06:19:08.078Z,4.07
2018-04-27T06:20:11.292Z,6.30
2018-04-27T06:21:14.423Z,3.78
2018-04-27T06:22:17.647Z,4.72
2018-04-27T06:23:20.704Z,4.68
2018-04-27T06:24:23.876Z,4.53
2018-04-27T06:25:27.203Z,4.50
2018-04-27T06:26:30.395Z,5.00
2018-04-27T06:27:33.467Z,6.70
2018-04-27T06:28:51.452Z,4.95
2018-04-27T06:29:54.547Z,4.85
2018-04-27T06:30:57.711Z,5.45
2018-04-27T06:32:00.798Z,4.68
2018-04-27T06:33:04.211Z,5.12
2018-04-27T06:34:07.375Z,6.30
2018-04-27T06:35:10.450Z,4.10
2018-04-27T06:36:13.555Z,6.00
2018-04-27T06:37:16.674Z,5.20
2018-04-27T06:38:19.894Z,4.62
2018-04-27T06:39:23.045Z,5.15
2018-04-27T06:40:26.191Z,5.05
2018-04-27T06:41:29.378Z,4.18
2018-04-27T06:42:32.508Z,5.07
2018-04-27T06:43:35.559Z,4.65
2018-04-27T06:44:38.694Z,4.78
2018-04-27T06:45:41.785Z,5.57
2018-04-27T06:46:44.857Z,7.75
2018-04-27T06:47:47.967Z,5.45
2018-04-27T06:48:51.214Z,4.68
2018-04-27T06:49:54.351Z,4.80
2018-04-27T06:50:58.197Z,4.68
2018-04-27T06:52:01.341Z,6.20
2018-04-27T06:53:04.644Z,5.10
2018-04-27T06:54:07.898Z,4.90
2018-04-27T06:55:11.097Z,5.78
2018-04-27T06:56:14.153Z,4.95
2018-04-27T06:57:17.273Z,5.78
2018-04-27T06:58:20.330Z,5.50
2018-04-27T06:59:23.664Z,4.53
2018-04-27T07:00:27.149Z,5.50
2018-04-27T07:02:08.970Z,4.70
2018-04-27T07:03:12.342Z,4.85
2018-04-27T07:04:15.790Z,4.20
2018-04-27T07:05:19.224Z,3.90
2018-04-27T07:06:22.710Z,4.22
2018-04-27T07:07:26.129Z,5.12
2018-04-27T07:08:29.524Z,5.40
2018-04-27T07:09:32.932Z,5.47
2018-04-27T07:10:36.291Z,4.53
2018-04-27T07:11:39.619Z,4.30
2018-04-27T07:12:42.971Z,4.60
2018-04-27T07:13:46.340Z,4.40
2018-04-27T07:14:49.674Z,4.07
2018-04-27T07:15:53.172Z,4.65
2018-04-27T07:16:56.563Z,4.43
2018-04-27T07:17:59.861Z,4.40
2018-04-27T07:19:03.236Z,3.70
2018-04-27T07:20:06.619Z,3.90
2018-04-27T07:21:10.075Z,3.37
2018-04-27T07:22:13.395Z,3.75
2018-04-27T07:23:16.747Z,3.85
2018-04-27T07:24:20.247Z,3.87
2018-04-27T07:25:23.681Z,3.75
2018-04-27T07:26:27.514Z,4.32
2018-04-27T07:27:31.078Z,3.45
2018-04-27T07:28:34.522Z,4.43
2018-04-27T07:29:37.984Z,3.90
2018-04-27T07:30:41.361Z,4.35
2018-04-27T07:31:44.673Z,4.00
2018-04-27T07:32:48.335Z,2.87
2018-04-27T07:33:51.733Z,3.03
2018-04-27T07:34:55.120Z,3.35
2018-04-27T07:35:58.571Z,3.90
2018-04-27T07:37:01.964Z,4.12
2018-04-27T07:38:05.566Z,3.70
2018-04-27T07:39:08.928Z,4.18
2018-04-27T07:40:12.500Z,4.00
2018-04-27T07:41:15.931Z,4.15
2018-04-27T07:42:19.366Z,4.37
2018-04-27T07:43:22.803Z,3.55
2018-04-27T07:44:26.283Z,3.62
2018-04-27T07:45:29.767Z,3.70
2018-04-27T07:46:33.114Z,4.10
2018-04-27T07:47:36.649Z,4.55
2018-04-27T07:48:40.050Z,3.47
2018-04-27T07:49:43.868Z,3.28
2018-04-27T07:50:48.578Z,3.90
2018-04-27T07:51:52.071Z,3.22
2018-04-27T07:52:55.571Z,3.55
2018-04-27T07:53:58.973Z,3.97
2018-04-27T07:55:02.337Z,4.20
2018-04-27T07:56:05.740Z,3.40
2018-04-27T07:57:09.076Z,3.75
2018-04-27T07:58:12.553Z,3.40
2018-04-27T07:59:15.918Z,3.75
2018-04-27T08:00:19.452Z,3.62
2018-04-27T08:01:23.113Z,2.95
2018-04-27T08:02:26.851Z,3.75
2018-04-27T08:03:30.263Z,3.25
2018-04-27T08:04:33.658Z,3.20
2018-04-27T08:05:36.997Z,3.00
2018-04-27T08:06:40.380Z,2.97
2018-04-27T08:07:44.065Z,3.58
2018-04-27T08:08:47.394Z,3.40
2018-04-27T08:09:50.814Z,3.90
2018-04-27T08:10:54.297Z,3.50
2018-04-27T08:11:57.763Z,3.15
2018-04-27T08:13:01.278Z,4.45
2018-04-27T08:14:04.837Z,3.35
2018-04-27T08:15:08.445Z,3.40
2018-04-27T08:16:12.204Z,3.45
2018-04-27T08:17:15.712Z,3.58
2018-04-27T08:18:19.600Z,2.97
2018-04-27T08:19:22.983Z,3.33
2018-04-27T08:20:27.810Z,3.45
2018-04-27T08:21:31.260Z,3.90
2018-04-27T08:22:36.676Z,3.78
2018-04-27T08:23:40.219Z,5.05
2018-04-27T08:24:43.617Z,3.65
2018-04-27T08:25:47.075Z,4.10
2018-04-27T08:26:50.748Z,3.80
2018-04-27T08:27:54.319Z,3.20
2018-04-27T08:29:00.544Z,3.50
2018-04-27T08:30:03.940Z,4.25
2018-04-27T08:31:07.438Z,4.10
2018-04-27T08:32:11.196Z,3.90
2018-04-27T08:33:14.667Z,4.25
2018-04-27T08:34:18.081Z,3.72
2018-04-27T08:35:21.476Z,3.97
2018-04-27T08:36:24.877Z,4.05
2018-04-27T08:37:28.380Z,4.25
2018-04-27T08:38:31.946Z,4.07
2018-04-27T08:39:35.275Z,3.67
2018-04-27T08:40:40.806Z,4.85
2018-04-27T08:41:44.646Z,4.50
2018-04-27T08:42:49.104Z,4.00
2018-04-27T08:43:52.723Z,4.22
2018-04-27T08:44:56.146Z,4.37
2018-04-27T08:46:00.027Z,3.58
2018-04-27T08:47:03.358Z,4.57
2018-04-27T08:48:06.851Z,3.87
2018-04-27T08:49:10.338Z,3.80
2018-04-27T08:50:14.002Z,3.70
2018-04-27T08:51:17.488Z,3.15
2018-04-27T08:52:20.856Z,3.58
2018-04-27T08:53:24.469Z,3.28
2018-04-27T08:54:29.749Z,3.95
2018-04-27T08:55:33.250Z,4.00
2018-04-27T08:56:37.567Z,3.70
2018-04-27T08:57:41.017Z,3.87
2018-04-27T08:58:46.646Z,4.40
2018-04-27T08:59:53.913Z,4.40
2018-04-27T09:00:57.326Z,3.47
2018-04-27T09:02:00.846Z,3.92
2018-04-27T09:03:04.231Z,3.65
2018-04-27T09:04:07.815Z,3.95
2018-04-27T09:05:11.284Z,3.78
2018-04-27T09:06:14.853Z,3.35
2018-04-27T09:07:18.197Z,3.60
2018-04-27T09:08:21.594Z,4.07
2018-04-27T09:09:25.639Z,4.12
2018-04-27T09:10:28.990Z,3.50
2018-04-27T09:11:32.406Z,3.72
2018-04-27T09:12:35.814Z,3.60
2018-04-27T09:13:39.150Z,3.47
2018-04-27T09:14:42.667Z,3.55
2018-04-27T09:15:46.020Z,3.33
2018-04-27T09:16:49.478Z,3.87
2018-04-27T09:17:53.940Z,3.70
2018-04-27T09:18:58.457Z,3.62
2018-04-27T09:20:01.876Z,3.72
2018-04-27T09:21:05.638Z,4.82
2018-04-27T09:22:09.081Z,3.80
2018-04-27T09:23:12.486Z,3.60
2018-04-27T09:24:16.125Z,3.95
2018-04-27T09:25:19.545Z,3.67
2018-04-27T09:26:23.013Z,3.70
2018-04-27T09:27:26.688Z,3.67
2018-04-27T09:28:30.093Z,3.90
2018-04-27T09:29:34.623Z,3.50
2018-04-27T09:30:38.028Z,3.55
2018-04-27T09:31:42.975Z,3.53
2018-04-27T09:32:46.514Z,3.45
2018-04-27T09:33:49.912Z,3.75
2018-04-27T09:34:53.376Z,3.37
2018-04-27T09:35:57.021Z,4.28
2018-04-27T09:37:00.428Z,3.95
2018-04-27T09:38:04.166Z,3.85
2018-04-27T09:39:07.785Z,2.90
2018-04-27T09:40:11.413Z,3.20
2018-04-27T09:41:15.117Z,3.25
2018-04-27T09:42:18.756Z,3.40
2018-04-27T09:43:22.161Z,3.17
2018-04-27T09:44:26.047Z,3.40
2018-04-27T09:45:29.468Z,3.87
2018-04-27T09:46:33.650Z,2.92
2018-04-27T09:47:38.815Z,4.05
2018-04-27T09:48:42.319Z,3.50
2018-04-27T09:49:45.927Z,3.72
2018-04-27T09:50:49.377Z,4.07
2018-04-27T09:51:52.805Z,3.70
2018-04-27T09:52:56.177Z,2.70
2018-04-27T09:53:59.565Z,3.00
2018-04-27T09:55:03.807Z,3.30
2018-04-27T09:56:07.210Z,3.72
2018-04-27T09:57:10.811Z,4.25
2018-04-27T09:58:14.902Z,3.62
2018-04-27T09:59:19.343Z,3.67
2018-04-27T10:00:23.401Z,2.80
2018-04-27T10:01:26.907Z,3.37
2018-04-27T10:02:31.202Z,4.18
2018-04-27T10:03:34.899Z,4.20
2018-04-27T10:04:38.496Z,3.40
2018-04-27T10:05:41.932Z,3.30
2018-04-27T10:06:45.468Z,4.20
2018-04-27T10:07:48.864Z,3.72
2018-04-27T10:08:52.363Z,3.50
2018-04-27T10:09:55.701Z,4.35
2018-04-27T10:10:59.091Z,4.10
2018-04-27T10:12:02.506Z,3.78
2018-04-27T10:13:06.120Z,3.20
2018-04-27T10:14:09.470Z,3.25
2018-04-27T10:15:13.020Z,3.70
2018-04-27T10:16:16.468Z,4.07
2018-04-27T10:17:20.036Z,3.03
2018-04-27T10:18:23.578Z,3.00
2018-04-27T10:19:27.256Z,2.92
2018-04-27T10:20:30.663Z,2.80
2018-04-27T10:21:34.352Z,3.12
2018-04-27T10:22:38.057Z,2.60
2018-04-27T10:23:41.689Z,3.17
2018-04-27T10:24:45.313Z,3.47
2018-04-27T10:25:48.665Z,3.28
2018-04-27T10:26:52.164Z,3.62
2018-04-27T10:27:55.635Z,3.15
2018-04-27T10:28:59.215Z,3.22
2018-04-27T10:30:04.644Z,3.00
2018-04-27T10:31:09.995Z,3.40
2018-04-27T10:32:14.872Z,3.58
2018-04-27T10:33:19.431Z,2.97
2018-04-27T10:34:24.458Z,3.58
2018-04-27T10:35:30.073Z,3.10
2018-04-27T10:36:36.021Z,2.92
2018-04-27T10:37:39.767Z,3.00
2018-04-27T10:38:43.117Z,2.60
2018-04-27T10:39:46.556Z,3.28
2018-04-27T10:40:50.179Z,3.33
2018-04-27T10:41:53.663Z,3.40
2018-04-27T10:42:57.371Z,3.03
2018-04-27T10:44:01.625Z,3.60
2018-04-27T10:45:06.061Z,2.47
2018-04-27T10:46:09.659Z,2.55
2018-04-27T10:47:13.243Z,2.75
2018-04-27T10:48:16.850Z,2.60
2018-04-27T10:49:20.857Z,2.60
2018-04-27T10:50:24.194Z,2.85
2018-04-27T10:51:27.744Z,2.53
2018-04-27T10:52:31.051Z,2.83
2018-04-27T10:53:34.532Z,2.45
2018-04-27T10:54:37.895Z,2.87
2018-04-27T10:55:41.321Z,2.70
2018-04-27T10:56:44.897Z,3.00
2018-04-27T10:57:48.758Z,2.90
2018-04-27T10:58:52.306Z,2.70
2018-04-27T10:59:56.183Z,2.65
2018-04-27T11:00:59.564Z,2.17
2018-04-27T11:02:02.978Z,2.37
2018-04-27T11:03:06.343Z,2.37
2018-04-27T11:04:09.723Z,2.15
2018-04-27T11:05:13.445Z,2.60
2018-04-27T11:06:16.948Z,2.35
2018-04-27T11:07:20.481Z,2.58
2018-04-27T11:08:23.915Z,2.67
2018-04-27T11:09:27.538Z,2.37
2018-04-27T11:10:31.016Z,3.20
2018-04-27T11:11:34.621Z,2.72
2018-04-27T11:12:38.327Z,2.60
2018-04-27T11:13:41.848Z,2.75
2018-04-27T11:14:45.478Z,2.42
2018-04-27T11:15:48.889Z,2.65
2018-04-27T11:16:52.703Z,2.10
2018-04-27T11:17:55.861Z,2.90
2018-04-27T11:18:59.513Z,2.65
2018-04-27T11:20:03.056Z,2.90
2018-04-27T11:21:06.526Z,2.97
2018-04-27T11:22:09.950Z,2.22
2018-04-27T11:23:13.468Z,2.30
2018-04-27T11:24:17.054Z,2.75
2018-04-27T11:25:20.737Z,2.42
2018-04-27T11:26:25.334Z,1.98
2018-04-27T11:27:28.828Z,2.58
2018-04-27T11:28:32.490Z,2.72
2018-04-27T11:29:35.876Z,2.58
2018-04-27T11:30:39.349Z,3.08
2018-04-27T11:31:43.418Z,2.28
2018-04-27T11:32:47.113Z,2.50
2018-04-27T11:33:50.627Z,2.85
2018-04-27T11:34:54.414Z,2.70
2018-04-27T11:35:57.860Z,2.40
2018-04-27T11:37:01.322Z,2.90
2018-04-27T11:38:04.891Z,2.65
2018-04-27T11:39:08.397Z,2.50
2018-04-27T11:40:11.991Z,2.47
2018-04-27T11:41:15.548Z,2.25
2018-04-27T11:42:18.947Z,2.55
2018-04-27T11:43:22.398Z,2.28
2018-04-27T11:44:25.992Z,2.53
2018-04-27T11:45:29.889Z,2.42
2018-04-27T11:46:34.599Z,2.05
2018-04-27T11:47:37.998Z,3.33
2018-04-27T11:48:41.447Z,2.15
2018-04-27T11:49:44.921Z,2.30
2018-04-27T11:50:48.412Z,2.62
2018-04-27T11:51:51.897Z,2.30
2018-04-27T11:52:55.236Z,2.10
2018-04-27T11:53:58.570Z,2.67
2018-04-27T11:55:02.019Z,2.75
2018-04-27T11:56:05.507Z,2.30
2018-04-27T11:57:08.908Z,2.33
2018-04-27T11:58:12.328Z,2.40
2018-04-27T11:59:15.725Z,2.42
2018-04-27T12:00:21.675Z,2.53
2018-04-27T12:01:25.209Z,3.30
2018-04-27T12:02:28.543Z,2.17
2018-04-27T12:03:32.159Z,2.72
2018-04-27T12:04:35.530Z,2.10
2018-04-27T12:05:39.109Z,2.20
2018-04-27T12:06:42.540Z,1.83
2018-04-27T12:07:46.044Z,3.10
2018-04-27T12:08:49.786Z,2.50
2018-04-27T12:09:53.564Z,4.05
2018-04-27T12:10:57.024Z,3.12
2018-04-27T12:12:00.478Z,2.30
2018-04-27T12:13:04.401Z,2.70
2018-04-27T12:14:07.763Z,2.47
2018-04-27T12:15:11.302Z,2.83
2018-04-27T12:16:14.720Z,2.50
2018-04-27T12:17:18.280Z,2.47
2018-04-27T12:18:21.715Z,2.60
2018-04-27T12:19:25.463Z,2.90
2018-04-27T12:20:28.909Z,2.50
2018-04-27T12:21:32.403Z,1.95
2018-04-27T12:22:35.892Z,2.22
2018-04-27T12:23:39.417Z,2.92
2018-04-27T12:24:42.820Z,2.80
2018-04-27T12:25:46.278Z,2.45
2018-04-27T12:26:49.762Z,2.75
2018-04-27T12:27:54.217Z,2.78
2018-04-27T12:28:58.599Z,2.40
2018-04-27T12:30:02.887Z,2.00
2018-04-27T12:31:06.592Z,3.85
2018-04-27T12:32:10.046Z,2.28
2018-04-27T12:33:13.512Z,3.22
2018-04-27T12:34:17.155Z,2.15
2018-04-27T12:35:20.552Z,2.58
2018-04-27T12:36:24.167Z,2.30
2018-04-27T12:37:27.539Z,2.47
2018-04-27T12:38:31.791Z,2.60
2018-04-27T12:39:35.106Z,2.50
2018-04-27T12:40:38.760Z,2.70
2018-04-27T12:41:42.095Z,2.50
2018-04-27T12:42:45.629Z,2.70
2018-04-27T12:43:48.955Z,2.25
2018-04-27T12:44:52.424Z,2.40
2018-04-27T12:45:55.953Z,2.30
2018-04-27T12:46:59.494Z,2.50
2018-04-27T12:48:03.206Z,3.12
2018-04-27T12:49:06.635Z,2.78
2018-04-27T12:50:10.099Z,3.45
2018-04-27T12:51:13.580Z,2.80
2018-04-27T12:52:17.476Z,2.53
2018-04-27T12:53:20.862Z,2.40
2018-04-27T12:54:24.436Z,3.20
2018-04-27T12:55:27.771Z,3.20
2018-04-27T12:56:32.048Z,2.30
2018-04-27T12:57:35.431Z,3.08
2018-04-27T12:58:38.940Z,2.80
2018-04-27T12:59:42.285Z,2.90
2018-04-27T13:00:45.863Z,1.90
2018-04-27T13:01:49.214Z,2.90
2018-04-27T13:02:52.693Z,2.85
2018-04-27T13:03:56.064Z,2.22
2018-04-27T13:04:59.655Z,2.40
2018-04-27T13:06:03.084Z,2.80
2018-04-27T13:07:06.862Z,2.25
2018-04-27T13:08:10.393Z,2.37
2018-04-27T13:09:15.128Z,2.75
2018-04-27T13:10:18.576Z,2.17
2018-04-27T13:11:22.310Z,2.55
2018-04-27T13:12:25.868Z,3.12
2018-04-27T13:13:29.355Z,2.42
2018-04-27T13:14:32.743Z,3.40
2018-04-27T13:15:36.266Z,2.78
2018-04-27T13:16:39.684Z,2.95
2018-04-27T13:17:43.362Z,2.95
2018-04-27T13:18:47.531Z,2.80
2018-04-27T13:19:51.119Z,2.60
2018-04-27T13:20:54.752Z,2.45
2018-04-27T13:21:58.077Z,2.60
2018-04-27T13:23:01.732Z,3.30
2018-04-27T13:24:05.201Z,3.10
2018-04-27T13:25:08.679Z,2.37
2018-04-27T13:26:12.347Z,2.03
2018-04-27T13:27:15.752Z,2.30
2018-04-27T13:28:19.149Z,2.03
2018-04-27T13:29:22.847Z,2.60
2018-04-27T13:30:26.287Z,2.35
2018-04-27T13:31:29.664Z,2.33
2018-04-27T13:32:33.068Z,2.60
2018-04-27T13:33:36.711Z,2.70
2018-04-27T13:34:40.133Z,3.37
2018-04-27T13:35:43.654Z,2.60
2018-04-27T13:36:47.259Z,2.70
2018-04-27T13:37:50.696Z,2.80
2018-04-27T13:38:54.240Z,2.30
2018-04-27T13:39:57.619Z,2.53
2018-04-27T13:41:01.331Z,2.62
2018-04-27T13:42:05.131Z,2.65
2018-04-27T13:43:08.436Z,2.90
2018-04-27T13:44:11.809Z,3.05
2018-04-27T13:45:15.348Z,3.35
2018-04-27T13:46:18.688Z,2.40
2018-04-27T13:47:22.057Z,3.25
2018-04-27T13:48:25.442Z,3.33
2018-04-27T13:49:28.776Z,2.90
2018-04-27T13:50:32.124Z,3.00
2018-04-27T13:51:35.735Z,2.75
2018-04-27T13:52:39.078Z,2.60
2018-04-27T13:53:42.447Z,2.58
2018-04-27T13:54:45.758Z,2.17
2018-04-27T13:55:49.206Z,2.10
2018-04-27T13:56:53.824Z,2.70
2018-04-27T13:57:57.224Z,2.55
2018-04-27T13:59:00.657Z,2.70
2018-04-27T14:00:04.394Z,2.20
2018-04-27T14:01:07.741Z,2.40
2018-04-27T14:02:11.107Z,2.60
2018-04-27T14:03:14.495Z,3.05
2018-04-27T14:04:17.814Z,2.92
2018-04-27T14:05:21.131Z,3.42
2018-04-27T14:06:24.537Z,2.58
2018-04-27T14:07:27.982Z,2.87